createdAt,value
2017-12-06T00:02:05.516Z,6.70
2017-12-06T00:04:33.548Z,7.33
2017-12-06T00:07:01.502Z,7.10
2017-12-06T00:09:30.975Z,8.70
2017-12-06T00:11:58.930Z,6.27
2017-12-06T00:14:32.619Z,8.70
2017-12-06T00:17:00.572Z,8.03
2017-12-06T00:19:28.518Z,7.90
2017-12-06T00:21:56.469Z,11.37
2017-12-06T00:24:24.389Z,10.77
2017-12-06T00:26:52.337Z,12.13
2017-12-06T00:29:20.359Z,5.57
2017-12-06T00:31:48.312Z,8.10
2017-12-06T00:34:16.309Z,8.93
2017-12-06T00:36:44.221Z,8.30
2017-12-06T00:39:12.234Z,8.73
2017-12-06T00:41:40.145Z,8.37
2017-12-06T00:44:08.438Z,10.97
2017-12-06T00:46:36.805Z,13.07
2017-12-06T00:49:04.760Z,5.67
2017-12-06T00:51:32.778Z,6.83
2017-12-06T00:54:01.643Z,6.37
2017-12-06T00:56:30.255Z,7.70
2017-12-06T00:58:58.181Z,7.50
2017-12-06T01:01:26.106Z,5.63
2017-12-06T01:03:54.046Z,10.20
2017-12-06T01:06:21.986Z,6.30
2017-12-06T01:08:49.979Z,9.87
2017-12-06T01:11:17.902Z,6.40
2017-12-06T01:13:45.829Z,6.23
2017-12-06T01:16:13.756Z,12.37
2017-12-06T01:18:42.008Z,7.30
2017-12-06T01:21:09.953Z,7.53
2017-12-06T01:23:37.885Z,7.83
2017-12-06T01:26:05.843Z,11.83
2017-12-06T01:28:33.919Z,9.00
2017-12-06T01:31:01.903Z,4.80
2017-12-06T01:33:29.828Z,5.93
2017-12-06T01:35:57.855Z,8.77
2017-12-06T01:38:25.794Z,11.73
2017-12-06T01:40:53.762Z,17.93
2017-12-06T01:43:21.670Z,9.33
2017-12-06T01:45:50.345Z,15.87
2017-12-06T01:48:18.286Z,7.27
2017-12-06T01:50:46.215Z,6.93
2017-12-06T01:53:14.139Z,13.07
2017-12-06T01:55:42.085Z,15.90
2017-12-06T01:58:10.020Z,9.60
2017-12-06T02:00:38.152Z,7.03
2017-12-06T02:03:06.062Z,5.20
2017-12-06T02:05:34.003Z,7.07
2017-12-06T02:08:01.987Z,8.47
2017-12-06T02:10:29.990Z,7.90
2017-12-06T02:12:57.968Z,12.00
2017-12-06T02:15:25.885Z,9.77
2017-12-06T02:17:53.798Z,9.17
2017-12-06T02:20:21.809Z,11.37
2017-12-06T02:22:49.802Z,5.20
2017-12-06T02:25:17.808Z,11.37
2017-12-06T02:27:45.755Z,6.60
2017-12-06T02:30:13.700Z,11.00
2017-12-06T02:32:41.655Z,4.67
2017-12-06T02:35:09.575Z,7.40
2017-12-06T02:37:37.789Z,12.47
2017-12-06T02:40:17.583Z,6.83
2017-12-06T02:42:57.303Z,8.67
2017-12-06T02:45:29.063Z,5.40
2017-12-06T02:47:57.058Z,7.87
2017-12-06T02:50:24.947Z,6.60
2017-12-06T02:52:52.863Z,8.70
2017-12-06T02:55:20.839Z,6.50
2017-12-06T02:57:48.914Z,9.30
2017-12-06T03:00:16.927Z,10.03
2017-12-06T03:02:44.968Z,11.63
2017-12-06T03:05:12.914Z,9.07
2017-12-06T03:07:40.961Z,10.70
2017-12-06T03:10:08.950Z,7.87
2017-12-06T03:12:36.917Z,14.20
2017-12-06T03:15:04.897Z,8.63
2017-12-06T03:17:32.861Z,13.63
2017-12-06T03:20:00.856Z,7.23
2017-12-06T03:22:28.852Z,8.03
2017-12-06T03:24:56.778Z,8.60
2017-12-06T03:27:24.781Z,10.10
2017-12-06T03:29:52.691Z,9.17
2017-12-06T03:32:20.851Z,10.97
2017-12-06T03:34:48.926Z,11.87
2017-12-06T03:37:16.960Z,11.90
2017-12-06T03:39:44.878Z,7.53
2017-12-06T03:42:12.811Z,6.90
2017-12-06T03:44:40.832Z,13.37
2017-12-06T03:47:08.839Z,12.27
2017-12-06T03:49:36.768Z,6.97
2017-12-06T03:52:04.709Z,14.07
2017-12-06T03:54:32.748Z,8.50
2017-12-06T03:57:00.690Z,10.00
2017-12-06T03:59:28.629Z,15.43
2017-12-06T04:01:56.533Z,8.50
2017-12-06T04:04:24.661Z,12.73
2017-12-06T04:06:52.561Z,9.23
2017-12-06T04:09:20.502Z,8.87
2017-12-06T04:11:48.451Z,9.77
2017-12-06T04:14:16.369Z,12.70
2017-12-06T04:16:44.301Z,9.37
2017-12-06T04:19:12.227Z,13.87
2017-12-06T04:21:40.159Z,6.87
2017-12-06T04:24:08.110Z,16.33
2017-12-06T04:26:36.036Z,13.67
2017-12-06T04:29:03.973Z,10.90
2017-12-06T04:31:31.894Z,12.97
2017-12-06T04:33:59.806Z,11.97
2017-12-06T04:36:27.885Z,14.47
2017-12-06T04:38:55.854Z,13.03
2017-12-06T04:41:23.927Z,18.07
2017-12-06T04:43:51.845Z,13.23
2017-12-06T04:46:19.753Z,14.67
2017-12-06T04:48:47.713Z,17.00
2017-12-06T04:51:15.625Z,11.50
2017-12-06T04:53:43.566Z,17.20
2017-12-06T04:56:11.474Z,16.33
2017-12-06T04:58:39.526Z,11.17
2017-12-06T05:01:07.466Z,16.80
2017-12-06T05:03:35.411Z,14.50
2017-12-06T05:06:03.423Z,13.23
2017-12-06T05:08:31.367Z,14.57
2017-12-06T05:10:59.312Z,15.77
2017-12-06T05:13:27.254Z,17.33
2017-12-06T05:15:55.195Z,17.07
2017-12-06T05:18:23.171Z,18.30
2017-12-06T05:20:51.115Z,19.47
2017-12-06T05:23:19.064Z,19.87
2017-12-06T05:25:46.995Z,16.50
2017-12-06T05:28:14.994Z,15.50
2017-12-06T05:30:42.909Z,20.50
2017-12-06T05:33:11.138Z,17.37
2017-12-06T05:35:39.192Z,17.20
2017-12-06T05:38:07.123Z,19.33
2017-12-06T05:40:35.081Z,15.23
2017-12-06T05:43:03.018Z,13.33
2017-12-06T05:45:30.981Z,13.23
2017-12-06T05:47:58.923Z,21.03
2017-12-06T05:50:26.894Z,16.23
2017-12-06T05:52:54.832Z,15.90
2017-12-06T05:55:22.780Z,19.57
2017-12-06T05:57:50.719Z,18.83
2017-12-06T06:00:18.642Z,14.57
2017-12-06T06:02:46.630Z,15.83
2017-12-06T06:05:14.626Z,19.43
2017-12-06T06:07:42.584Z,19.40
2017-12-06T06:10:10.603Z,17.60
2017-12-06T06:12:38.542Z,18.37
2017-12-06T06:15:06.511Z,19.10
2017-12-06T06:17:34.518Z,18.43
2017-12-06T06:20:02.454Z,21.10
2017-12-06T06:22:30.434Z,23.10
2017-12-06T06:24:58.373Z,17.93
2017-12-06T06:27:27.414Z,24.63
2017-12-06T06:29:55.394Z,21.70
2017-12-06T06:32:23.304Z,24.57
2017-12-06T06:34:51.226Z,20.20
2017-12-06T06:37:19.154Z,20.37
2017-12-06T06:39:47.116Z,18.20
2017-12-06T06:42:15.231Z,19.10
2017-12-06T06:44:43.938Z,25.93
2017-12-06T06:47:11.880Z,23.80
2017-12-06T06:49:39.847Z,21.60
2017-12-06T06:52:07.829Z,21.93
2017-12-06T06:54:35.758Z,23.03
2017-12-06T06:57:03.772Z,23.97
2017-12-06T06:59:31.669Z,26.57
2017-12-06T07:01:59.668Z,23.17
2017-12-06T07:04:27.684Z,20.90
2017-12-06T07:06:55.687Z,21.70
2017-12-06T07:09:23.618Z,28.17
2017-12-06T07:11:51.577Z,26.90
2017-12-06T07:14:19.727Z,26.70
2017-12-06T07:16:47.724Z,25.13
2017-12-06T07:19:15.676Z,24.23
2017-12-06T07:21:43.683Z,25.53
2017-12-06T07:24:11.679Z,25.93
2017-12-06T07:26:39.679Z,33.17
2017-12-06T07:29:07.806Z,29.43
2017-12-06T07:31:36.235Z,28.13
2017-12-06T07:34:04.699Z,28.60
2017-12-06T07:36:32.647Z,26.00
2017-12-06T07:39:00.596Z,32.23
2017-12-06T07:41:28.695Z,32.30
2017-12-06T07:43:57.736Z,30.30
2017-12-06T07:46:25.954Z,28.07
2017-12-06T07:48:53.965Z,31.47
2017-12-06T07:51:26.594Z,26.10
2017-12-06T07:53:58.057Z,29.87
2017-12-06T07:56:25.962Z,22.23
2017-12-06T07:58:53.938Z,27.47
2017-12-06T08:01:21.892Z,26.33
2017-12-06T08:03:49.858Z,21.83
2017-12-06T08:06:17.806Z,21.27
2017-12-06T08:08:45.790Z,22.00
2017-12-06T08:11:13.721Z,22.83
2017-12-06T08:13:41.774Z,28.33
2017-12-06T08:16:09.745Z,20.77
2017-12-06T08:18:37.686Z,23.47
2017-12-06T08:21:05.965Z,24.40
2017-12-06T08:23:33.924Z,27.03
2017-12-06T08:26:01.823Z,24.53
2017-12-06T08:28:29.761Z,20.43
2017-12-06T08:30:57.829Z,28.27
2017-12-06T08:33:25.766Z,19.33
2017-12-06T08:35:53.708Z,21.60
2017-12-06T08:38:21.651Z,22.90
2017-12-06T08:40:49.557Z,25.37
2017-12-06T08:43:17.476Z,25.07
2017-12-06T08:45:45.454Z,28.70
2017-12-06T08:48:13.399Z,23.40
2017-12-06T08:50:41.416Z,22.50
2017-12-06T08:53:09.337Z,26.10
2017-12-06T08:55:37.284Z,23.77
2017-12-06T08:58:05.233Z,24.27
2017-12-06T09:00:33.164Z,22.80
2017-12-06T09:03:01.313Z,25.47
2017-12-06T09:05:29.243Z,26.17
2017-12-06T09:07:57.181Z,27.87
2017-12-06T09:10:25.157Z,28.43
2017-12-06T09:12:53.125Z,21.17
2017-12-06T09:15:21.064Z,23.50
2017-12-06T09:17:49.342Z,21.43
2017-12-06T09:20:17.393Z,24.83
2017-12-06T09:22:45.322Z,24.70
2017-12-06T09:25:13.282Z,22.33
2017-12-06T09:27:41.862Z,33.60
2017-12-06T09:30:09.992Z,26.77
2017-12-06T09:32:38.047Z,20.10
2017-12-06T09:35:05.960Z,27.23
2017-12-06T09:37:33.918Z,20.30
2017-12-06T09:40:02.002Z,21.00
2017-12-06T09:42:29.930Z,22.40
2017-12-06T09:44:57.885Z,23.13
2017-12-06T09:47:26.008Z,19.80
2017-12-06T09:49:53.947Z,20.17
2017-12-06T09:52:21.939Z,18.37
2017-12-06T09:54:49.907Z,21.50
2017-12-06T09:57:17.849Z,14.87
2017-12-06T09:59:45.794Z,16.13
2017-12-06T10:02:13.773Z,19.07
2017-12-06T10:04:41.743Z,24.13
2017-12-06T10:07:09.835Z,21.87
2017-12-06T10:09:37.769Z,21.17
2017-12-06T10:12:05.773Z,15.80
2017-12-06T10:14:33.841Z,15.70
2017-12-06T10:17:01.863Z,17.70
2017-12-06T10:19:29.844Z,19.43
2017-12-06T10:21:57.817Z,16.93
2017-12-06T10:24:25.815Z,18.70
2017-12-06T10:26:53.797Z,15.73
2017-12-06T10:29:21.747Z,29.20
2017-12-06T10:31:49.697Z,22.00
2017-12-06T10:34:17.682Z,17.00
2017-12-06T10:36:45.656Z,18.07
2017-12-06T10:39:13.733Z,22.00
2017-12-06T10:41:41.699Z,21.80
2017-12-06T10:44:09.690Z,24.00
2017-12-06T10:46:37.699Z,23.67
2017-12-06T10:49:05.615Z,19.80
2017-12-06T10:51:33.583Z,25.33
2017-12-06T10:54:01.626Z,23.90
2017-12-06T10:56:29.595Z,21.03
2017-12-06T10:58:57.556Z,22.40
2017-12-06T11:01:25.511Z,15.40
2017-12-06T11:03:53.488Z,22.43
2017-12-06T11:06:21.405Z,20.03
2017-12-06T11:08:49.388Z,17.17
2017-12-06T11:11:17.322Z,21.83
2017-12-06T11:13:45.289Z,22.13
2017-12-06T11:16:13.230Z,16.90
2017-12-06T11:18:41.167Z,18.70
2017-12-06T11:21:09.158Z,23.77
2017-12-06T11:23:37.168Z,24.57
2017-12-06T11:26:05.167Z,15.93
2017-12-06T11:28:33.162Z,16.60
2017-12-06T11:31:01.156Z,20.10
2017-12-06T11:33:29.106Z,20.10
2017-12-06T11:35:57.036Z,18.47
2017-12-06T11:38:25.801Z,14.07
2017-12-06T11:40:53.759Z,15.77
2017-12-06T11:43:21.758Z,15.73
2017-12-06T11:45:49.678Z,17.80
2017-12-06T11:48:17.622Z,19.97
2017-12-06T11:50:45.617Z,16.50
2017-12-06T11:53:13.749Z,19.10
2017-12-06T11:55:41.631Z,14.07
2017-12-06T11:58:09.567Z,16.80
2017-12-06T12:00:37.494Z,20.27
2017-12-06T12:03:05.442Z,19.13
2017-12-06T12:05:33.388Z,14.83
2017-12-06T12:08:01.328Z,16.80
2017-12-06T12:10:29.236Z,19.13
2017-12-06T12:12:57.184Z,17.80
2017-12-06T12:15:25.176Z,22.30
2017-12-06T12:17:53.161Z,12.63
2017-12-06T12:20:21.148Z,16.23
2017-12-06T12:22:49.102Z,17.60
2017-12-06T12:25:17.006Z,16.10
2017-12-06T12:27:44.937Z,17.57
2017-12-06T12:30:12.911Z,12.67
2017-12-06T12:32:40.982Z,16.60
2017-12-06T12:35:08.934Z,13.93
2017-12-06T12:37:36.863Z,17.80
2017-12-06T12:40:04.793Z,14.47
2017-12-06T12:42:35.212Z,18.17
2017-12-06T12:45:03.264Z,17.90
2017-12-06T12:47:31.319Z,15.33
2017-12-06T12:49:59.287Z,17.60
2017-12-06T12:52:27.217Z,11.77
2017-12-06T12:54:55.287Z,15.70
2017-12-06T12:57:23.246Z,16.17
2017-12-06T12:59:51.174Z,16.37
2017-12-06T13:02:19.117Z,23.90
2017-12-06T13:04:47.166Z,11.90
2017-12-06T13:07:15.087Z,13.10
2017-12-06T13:09:43.018Z,11.00
2017-12-06T13:12:10.955Z,12.17
2017-12-06T13:14:38.899Z,17.27
2017-12-06T13:17:06.890Z,17.33
2017-12-06T13:19:34.825Z,12.87
2017-12-06T13:22:02.767Z,9.73
2017-12-06T13:24:30.673Z,18.13
2017-12-06T13:26:58.627Z,13.37
2017-12-06T13:29:26.575Z,14.00
2017-12-06T13:31:54.624Z,15.70
2017-12-06T13:34:22.592Z,23.97
2017-12-06T13:36:50.534Z,18.77
2017-12-06T13:39:18.486Z,14.63
2017-12-06T13:41:46.433Z,13.83
2017-12-06T13:44:14.403Z,11.00
2017-12-06T13:46:42.348Z,17.77
2017-12-06T13:49:10.306Z,15.37
2017-12-06T13:51:38.260Z,14.00
2017-12-06T13:54:06.229Z,15.00
2017-12-06T13:56:34.446Z,13.73
2017-12-06T13:59:02.358Z,11.20
2017-12-06T14:01:30.346Z,13.37
2017-12-06T14:03:58.298Z,10.33
2017-12-06T14:06:26.248Z,9.30
2017-12-06T14:08:54.989Z,14.67
2017-12-06T14:11:22.906Z,13.00
2017-12-06T14:13:51.238Z,9.87
2017-12-06T14:16:19.234Z,14.20
2017-12-06T14:18:47.224Z,9.87
2017-12-06T14:21:15.181Z,15.80
2017-12-06T14:23:43.165Z,19.30
2017-12-06T14:26:11.190Z,15.43
2017-12-06T14:28:39.259Z,14.77
2017-12-06T14:31:07.234Z,19.60
2017-12-06T14:33:35.965Z,15.70
2017-12-06T14:36:04.012Z,13.80
2017-12-06T14:38:31.934Z,11.90
2017-12-06T14:40:59.906Z,10.40
2017-12-06T14:43:28.536Z,12.17
2017-12-06T14:45:56.483Z,15.80
2017-12-06T14:48:24.432Z,14.13
2017-12-06T14:50:52.412Z,13.70
2017-12-06T14:53:20.380Z,10.40
2017-12-06T14:55:48.343Z,10.10
2017-12-06T14:58:16.291Z,11.40
2017-12-06T15:00:44.269Z,9.60
2017-12-06T15:03:12.211Z,16.87
2017-12-06T15:05:40.186Z,10.77
2017-12-06T15:08:08.420Z,14.23
2017-12-06T15:10:36.408Z,10.13
2017-12-06T15:13:04.310Z,9.40
2017-12-06T15:15:32.262Z,10.93
2017-12-06T15:18:00.214Z,10.83
2017-12-06T15:20:28.186Z,14.53
2017-12-06T15:22:56.149Z,8.90
2017-12-06T15:25:24.118Z,11.10
2017-12-06T15:27:52.039Z,12.63
2017-12-06T15:30:20.060Z,8.20
2017-12-06T15:32:47.984Z,11.77
2017-12-06T15:35:16.198Z,14.60
2017-12-06T15:37:44.460Z,10.07
2017-12-06T15:40:12.402Z,17.37
2017-12-06T15:42:40.334Z,16.67
2017-12-06T15:45:08.383Z,9.57
2017-12-06T15:47:36.333Z,9.43
2017-12-06T15:50:04.304Z,13.63
2017-12-06T15:58:19.174Z,11.70
2017-12-06T16:00:47.048Z,8.57
2017-12-06T16:03:14.985Z,7.83
2017-12-06T16:05:42.946Z,12.37
2017-12-06T16:08:11.510Z,9.33
2017-12-06T16:10:39.451Z,6.50
2017-12-06T16:13:07.350Z,8.03
2017-12-06T16:15:35.336Z,7.47
2017-12-06T16:18:03.287Z,8.83
2017-12-06T16:20:31.218Z,8.43
2017-12-06T16:22:59.165Z,11.23
2017-12-06T16:25:27.069Z,11.47
2017-12-06T16:27:55.311Z,9.00
2017-12-06T16:30:23.256Z,8.00
2017-12-06T16:32:51.185Z,9.33
2017-12-06T16:35:31.005Z,7.27
2017-12-06T16:37:59.001Z,7.43
2017-12-06T16:40:26.990Z,9.20
2017-12-06T16:42:55.122Z,8.53
2017-12-06T16:45:23.053Z,6.90
2017-12-06T16:47:50.986Z,6.33
2017-12-06T16:50:18.929Z,6.57
2017-12-06T16:52:46.951Z,11.33
2017-12-06T16:55:16.157Z,10.00
2017-12-06T16:57:44.194Z,13.50
2017-12-06T17:00:12.159Z,13.93
2017-12-06T17:02:40.393Z,7.90
2017-12-06T17:05:08.334Z,8.37
2017-12-06T17:07:36.268Z,9.47
2017-12-06T17:10:04.178Z,19.90
2017-12-06T17:12:32.115Z,14.67
2017-12-06T17:15:00.058Z,9.40
2017-12-06T17:17:28.021Z,8.40
2017-12-06T17:19:55.998Z,9.00
2017-12-06T17:22:24.431Z,5.57
2017-12-06T17:24:52.370Z,7.50
2017-12-06T17:27:20.351Z,7.30
2017-12-06T17:30:00.158Z,11.67
2017-12-06T17:32:28.225Z,6.97
2017-12-06T17:34:56.162Z,6.17
2017-12-06T17:37:24.128Z,9.10
2017-12-06T17:39:52.350Z,7.97
2017-12-06T17:42:20.475Z,8.67
2017-12-06T17:44:48.523Z,8.27
2017-12-06T17:47:16.475Z,5.90
2017-12-06T17:49:44.404Z,9.77
2017-12-06T17:52:12.378Z,12.90
2017-12-06T17:54:40.394Z,6.67
2017-12-06T17:57:08.383Z,11.27
2017-12-06T17:59:36.628Z,6.93
2017-12-06T18:02:04.595Z,10.70
2017-12-06T18:04:32.527Z,11.43
2017-12-06T18:07:00.491Z,8.57
2017-12-06T18:09:28.423Z,7.37
2017-12-06T18:11:56.942Z,9.33
2017-12-06T18:14:24.974Z,7.90
2017-12-06T18:16:53.834Z,9.37
2017-12-06T18:19:21.806Z,5.00
2017-12-06T18:21:49.993Z,12.90
2017-12-06T18:24:18.031Z,8.07
2017-12-06T18:26:46.838Z,12.97
2017-12-06T18:29:14.811Z,8.90
2017-12-06T18:31:43.044Z,7.53
2017-12-06T18:34:11.095Z,6.83
2017-12-06T18:36:38.988Z,6.73
2017-12-06T18:39:06.926Z,7.13
2017-12-06T18:41:34.863Z,6.60
2017-12-06T18:44:02.948Z,6.80
2017-12-06T18:46:30.842Z,10.73
2017-12-06T18:48:59.030Z,5.80
2017-12-06T18:51:27.157Z,6.97
2017-12-06T18:53:55.133Z,5.73
2017-12-06T18:56:23.274Z,4.87
2017-12-06T18:58:51.209Z,6.60
2017-12-06T19:01:19.163Z,4.93
2017-12-06T19:03:47.286Z,6.33
2017-12-06T19:06:15.221Z,7.33
2017-12-06T19:08:43.131Z,6.17
2017-12-06T19:11:11.117Z,5.60
2017-12-06T19:13:39.031Z,7.37
2017-12-06T19:16:06.947Z,8.37
2017-12-06T19:18:34.889Z,5.90
2017-12-06T19:21:02.817Z,8.97
2017-12-06T19:23:30.830Z,5.97
2017-12-06T19:25:58.851Z,5.70
2017-12-06T19:28:26.767Z,10.23
2017-12-06T19:30:54.693Z,8.50
2017-12-06T19:33:23.380Z,5.67
2017-12-06T19:35:51.330Z,5.83
2017-12-06T19:38:19.422Z,6.47
2017-12-06T19:40:47.546Z,5.37
2017-12-06T19:43:15.446Z,8.47
2017-12-06T19:45:43.402Z,8.40
2017-12-06T19:48:11.336Z,5.17
2017-12-06T19:50:39.394Z,8.57
2017-12-06T19:53:07.580Z,5.20
2017-12-06T19:55:35.780Z,7.20
2017-12-06T19:58:03.937Z,6.20
2017-12-06T20:00:31.875Z,7.00
2017-12-06T20:02:59.795Z,6.20
2017-12-06T20:05:27.727Z,6.67
2017-12-06T20:07:55.649Z,6.70
2017-12-06T20:10:23.701Z,5.50
2017-12-06T20:12:51.603Z,7.43
2017-12-06T20:15:19.538Z,4.57
2017-12-06T20:17:47.543Z,5.17
2017-12-06T20:20:15.585Z,5.67
2017-12-06T20:22:43.589Z,5.57
2017-12-06T20:25:11.554Z,4.70
2017-12-06T20:27:39.484Z,5.13
2017-12-06T20:30:07.401Z,5.40
2017-12-06T20:32:35.450Z,5.90
2017-12-06T20:35:03.364Z,6.50
2017-12-06T20:37:31.301Z,9.67
2017-12-06T20:39:59.226Z,4.40
2017-12-06T20:42:27.246Z,5.90
2017-12-06T20:44:55.164Z,5.00
2017-12-06T20:47:23.107Z,4.83
2017-12-06T20:49:51.038Z,9.83
2017-12-06T20:52:19.007Z,9.20
2017-12-06T20:54:46.992Z,13.33
2017-12-06T20:57:14.922Z,6.90
2017-12-06T20:59:42.864Z,6.00
2017-12-06T21:02:11.434Z,4.83
2017-12-06T21:04:39.371Z,4.50
2017-12-06T21:07:07.318Z,5.57
2017-12-06T21:09:35.361Z,3.50
2017-12-06T21:12:03.309Z,6.90
2017-12-06T21:14:31.331Z,6.73
2017-12-06T21:16:59.253Z,3.37
2017-12-06T21:19:28.917Z,6.03
2017-12-06T21:21:56.889Z,5.17
2017-12-06T21:24:24.815Z,3.00
2017-12-06T21:26:52.727Z,4.13
2017-12-06T21:29:20.657Z,5.43
2017-12-06T21:31:48.595Z,4.40
2017-12-06T21:34:16.721Z,4.23
2017-12-06T21:36:44.610Z,5.53
2017-12-06T21:39:12.552Z,4.83
2017-12-06T21:41:40.496Z,3.83
2017-12-06T21:44:08.397Z,4.20
2017-12-06T21:46:36.354Z,3.87
2017-12-06T21:49:04.273Z,4.67
2017-12-06T21:51:32.306Z,7.10
2017-12-06T21:54:00.228Z,4.87
2017-12-06T21:56:28.196Z,5.87
2017-12-06T21:58:56.149Z,7.77
2017-12-06T22:01:24.111Z,6.83
2017-12-06T22:03:52.052Z,8.00
2017-12-06T22:06:20.031Z,5.47
2017-12-06T22:08:47.970Z,8.20
2017-12-06T22:11:16.687Z,7.03
2017-12-06T22:13:44.697Z,6.47
2017-12-06T22:16:12.581Z,6.23
2017-12-06T22:18:40.504Z,7.63
2017-12-06T22:21:08.429Z,6.03
2017-12-06T22:23:36.353Z,8.93
2017-12-06T22:26:04.424Z,8.40
2017-12-06T22:28:32.416Z,7.20
2017-12-06T22:31:00.470Z,7.10
2017-12-06T22:33:28.545Z,7.17
2017-12-06T22:35:56.470Z,7.50
2017-12-06T22:38:24.505Z,5.70
2017-12-06T22:40:52.506Z,6.47
2017-12-06T22:43:20.448Z,6.40
2017-12-06T22:45:48.393Z,5.87
2017-12-06T22:48:16.320Z,6.17
2017-12-06T22:50:44.246Z,5.23
2017-12-06T22:53:12.341Z,4.33
2017-12-06T22:55:40.389Z,5.70
2017-12-06T22:58:08.377Z,4.57
2017-12-06T23:00:36.312Z,7.13
2017-12-06T23:03:04.357Z,5.53
2017-12-06T23:05:32.327Z,6.30
2017-12-06T23:08:00.467Z,6.80
2017-12-06T23:10:28.492Z,6.43
2017-12-06T23:12:57.915Z,7.57
2017-12-06T23:15:26.137Z,5.60
2017-12-06T23:17:54.078Z,7.83
2017-12-06T23:20:22.005Z,4.50
2017-12-06T23:22:49.935Z,7.23
2017-12-06T23:25:17.919Z,3.93
2017-12-06T23:27:46.236Z,3.90
2017-12-06T23:30:14.233Z,5.23
2017-12-06T23:32:42.277Z,4.60
2017-12-06T23:35:10.254Z,4.27
2017-12-06T23:37:38.181Z,5.33
2017-12-06T23:40:06.647Z,5.03
2017-12-06T23:42:36.092Z,6.90
2017-12-06T23:45:04.137Z,4.13
2017-12-06T23:47:32.110Z,4.53
2017-12-06T23:50:00.106Z,6.10
2017-12-06T23:52:28.067Z,5.40
2017-12-06T23:54:58.813Z,6.50
2017-12-06T23:57:28.120Z,5.17
2017-12-06T23:59:56.050Z,7.00
